createdAt,value
2022-12-19T00:01:58.347Z,91.80
2022-12-19T00:04:26.495Z,92.44
2022-12-19T00:06:57.145Z,91.94
2022-12-19T00:09:25.924Z,92.00
2022-12-19T00:11:53.995Z,92.02
2022-12-19T00:14:21.659Z,92.46
2022-12-19T00:16:49.392Z,92.12
2022-12-19T00:19:17.558Z,89.53
2022-12-19T00:21:45.293Z,91.94
2022-12-19T00:24:21.365Z,92.31
2022-12-19T00:26:49.945Z,92.51
2022-12-19T00:29:17.615Z,92.48
2022-12-19T00:31:45.388Z,92.54
2022-12-19T00:34:15.345Z,92.44
2022-12-19T00:36:42.946Z,92.95
2022-12-19T00:39:10.636Z,92.44
2022-12-19T00:41:42.087Z,87.26
2022-12-19T00:44:12.059Z,86.40
2022-12-19T00:46:40.198Z,90.59
2022-12-19T00:49:08.034Z,91.54
2022-12-19T00:51:36.766Z,89.87
2022-12-19T00:54:05.425Z,85.59
2022-12-19T00:56:37.858Z,89.11
2022-12-19T00:59:07.798Z,87.63
2022-12-19T01:01:38.023Z,84.87
2022-12-19T01:06:56.676Z,83.04
2022-12-19T01:09:33.073Z,82.45
2022-12-19T01:12:01.494Z,82.08
2022-12-19T01:14:29.197Z,81.75
2022-12-19T01:16:57.248Z,82.66
2022-12-19T01:19:26.885Z,86.95
2022-12-19T01:21:54.584Z,89.55
2022-12-19T01:24:22.755Z,90.43
2022-12-19T01:26:50.760Z,90.48
2022-12-19T01:29:18.814Z,90.44
2022-12-19T01:31:48.559Z,90.92
2022-12-19T01:34:16.603Z,87.89
2022-12-19T01:36:44.223Z,84.21
2022-12-19T01:39:11.886Z,83.35
2022-12-19T01:41:40.098Z,82.84
2022-12-19T01:44:08.567Z,82.81
2022-12-19T01:46:36.171Z,82.74
2022-12-19T01:49:05.973Z,88.21
2022-12-19T01:51:44.451Z,89.57
2022-12-19T01:54:16.949Z,89.65
2022-12-19T01:56:47.853Z,89.23
2022-12-19T01:59:27.658Z,89.66
2022-12-19T02:02:10.055Z,89.53
2022-12-19T02:04:41.378Z,89.53
2022-12-19T02:07:16.018Z,90.08
2022-12-19T02:09:52.437Z,90.01
2022-12-19T02:12:27.023Z,90.64
2022-12-19T02:15:02.115Z,90.51
2022-12-19T02:17:57.886Z,90.89
2022-12-19T02:20:36.826Z,90.01
2022-12-19T02:23:32.420Z,90.26
2022-12-19T02:26:25.997Z,90.99
2022-12-19T02:29:12.874Z,90.76
2022-12-19T02:31:52.021Z,91.27
2022-12-19T02:34:34.542Z,91.16
2022-12-19T02:37:18.335Z,90.88
2022-12-19T02:39:56.444Z,86.30
2022-12-19T02:42:28.248Z,84.64
2022-12-19T02:45:00.796Z,84.39
2022-12-19T02:47:31.323Z,84.64
2022-12-19T02:50:00.297Z,83.98
2022-12-19T02:52:28.145Z,84.40
2022-12-19T02:54:58.845Z,84.02
2022-12-19T02:57:33.285Z,84.40
2022-12-19T03:00:10.956Z,83.62
2022-12-19T03:03:07.086Z,83.94
2022-12-19T03:05:44.280Z,83.79
2022-12-19T03:08:24.007Z,83.48
2022-12-19T03:10:59.763Z,84.13
2022-12-19T03:13:27.472Z,86.21
2022-12-19T03:15:57.778Z,89.47
2022-12-19T03:18:26.175Z,91.40
2022-12-19T03:21:15.073Z,91.49
2022-12-19T03:23:43.024Z,89.67
2022-12-19T03:26:13.195Z,88.73
2022-12-19T03:29:05.664Z,88.78
2022-12-19T03:31:34.511Z,88.87
2022-12-19T03:34:26.156Z,88.96
2022-12-19T03:36:56.818Z,88.59
2022-12-19T03:39:25.500Z,90.53
2022-12-19T03:41:53.556Z,90.58
2022-12-19T03:44:23.209Z,91.02
2022-12-19T03:47:09.901Z,90.79
2022-12-19T03:49:39.043Z,91.37
2022-12-19T03:52:26.839Z,91.75
2022-12-19T03:55:12.849Z,91.68
2022-12-19T03:57:48.943Z,91.83
2022-12-19T04:00:17.621Z,91.79
2022-12-19T04:02:51.534Z,92.03
2022-12-19T04:05:21.496Z,91.84
2022-12-19T04:07:51.125Z,91.99
2022-12-19T04:10:21.144Z,91.22
2022-12-19T04:12:53.622Z,91.12
2022-12-19T04:15:30.040Z,91.16
2022-12-19T04:17:59.013Z,91.19
2022-12-19T04:20:27.162Z,91.34
2022-12-19T04:23:04.585Z,91.37
2022-12-19T04:25:36.594Z,90.35
2022-12-19T04:28:05.482Z,91.28
2022-12-19T04:30:36.926Z,91.37
2022-12-19T04:33:04.968Z,90.74
2022-12-19T04:35:34.247Z,90.84
2022-12-19T04:38:04.237Z,90.50
2022-12-19T04:40:36.553Z,90.91
2022-12-19T04:43:07.452Z,90.96
2022-12-19T04:45:35.420Z,85.72
2022-12-19T04:48:04.693Z,84.30
2022-12-19T04:50:34.870Z,83.88
2022-12-19T04:53:03.105Z,87.11
2022-12-19T04:55:30.730Z,89.50
2022-12-19T04:57:58.840Z,89.74
2022-12-19T05:00:26.577Z,89.74
2022-12-19T05:02:54.315Z,90.12
2022-12-19T05:05:22.357Z,89.58
2022-12-19T05:07:49.952Z,89.93
2022-12-19T05:10:17.748Z,89.62
2022-12-19T05:12:45.716Z,89.94
2022-12-19T05:15:13.438Z,90.61
2022-12-19T05:17:41.273Z,89.92
2022-12-19T05:20:09.760Z,90.16
2022-12-19T05:22:37.325Z,89.45
2022-12-19T05:25:05.413Z,89.04
2022-12-19T05:27:33.476Z,89.47
2022-12-19T05:30:01.266Z,89.93
2022-12-19T05:32:31.918Z,89.62
2022-12-19T05:34:59.951Z,90.15
2022-12-19T05:37:27.654Z,89.97
2022-12-19T05:39:55.280Z,89.86
2022-12-19T05:42:25.370Z,84.78
2022-12-19T05:44:53.109Z,86.99
2022-12-19T05:47:20.802Z,89.42
2022-12-19T05:49:48.794Z,89.27
2022-12-19T05:52:16.554Z,90.15
2022-12-19T05:54:44.107Z,90.06
2022-12-19T05:57:12.091Z,89.19
2022-12-19T05:59:39.996Z,89.55
2022-12-19T06:02:07.632Z,89.29
2022-12-19T06:04:35.752Z,90.17
2022-12-19T06:07:03.940Z,90.40
2022-12-19T06:09:31.636Z,89.43
2022-12-19T06:11:59.643Z,89.32
2022-12-19T06:14:27.325Z,90.07
2022-12-19T06:16:54.907Z,90.41
2022-12-19T06:19:23.183Z,89.89
2022-12-19T06:21:50.816Z,89.56
2022-12-19T06:24:18.494Z,89.44
2022-12-19T06:26:46.346Z,91.13
2022-12-19T06:29:14.048Z,89.99
2022-12-19T06:31:41.902Z,88.69
2022-12-19T06:34:10.877Z,88.96
2022-12-19T06:36:41.208Z,88.77
2022-12-19T06:39:13.172Z,84.53
2022-12-19T06:41:42.530Z,82.41
2022-12-19T06:44:12.198Z,81.19
2022-12-19T06:46:41.097Z,80.69
2022-12-19T06:49:10.717Z,80.72
2022-12-19T06:51:38.488Z,81.06
2022-12-19T06:54:06.471Z,79.77
2022-12-19T06:56:35.925Z,79.23
2022-12-19T06:59:04.297Z,78.62
2022-12-19T07:02:16.065Z,77.28
2022-12-19T07:04:50.707Z,77.76
2022-12-19T07:07:18.282Z,82.62
2022-12-19T07:09:46.421Z,83.82
2022-12-19T07:12:14.498Z,83.82
2022-12-19T07:14:42.402Z,84.14
2022-12-19T07:17:10.336Z,83.85
2022-12-19T07:19:38.035Z,84.20
2022-12-19T07:22:06.684Z,84.44
2022-12-19T07:24:35.247Z,84.73
2022-12-19T07:27:03.327Z,84.84
2022-12-19T07:29:35.242Z,84.80
2022-12-19T07:32:04.783Z,83.59
2022-12-19T07:34:32.444Z,83.00
2022-12-19T07:37:00.121Z,83.80
2022-12-19T07:39:28.181Z,84.19
2022-12-19T07:41:55.804Z,83.04
2022-12-19T07:44:27.515Z,79.43
2022-12-19T07:46:55.507Z,77.31
2022-12-19T07:49:23.185Z,79.01
2022-12-19T07:51:50.824Z,82.07
2022-12-19T07:54:18.873Z,81.74
2022-12-19T07:56:46.516Z,82.95
2022-12-19T07:59:14.514Z,82.79
2022-12-19T08:01:42.919Z,82.18
2022-12-19T08:04:10.938Z,81.97
2022-12-19T08:06:41.300Z,81.97
2022-12-19T08:09:09.335Z,81.06
2022-12-19T08:11:38.090Z,80.29
2022-12-19T08:14:05.724Z,80.16
2022-12-19T08:16:43.919Z,81.13
2022-12-19T08:19:25.908Z,80.55
2022-12-19T08:21:55.008Z,80.46
2022-12-19T08:24:22.923Z,80.74
2022-12-19T08:26:50.616Z,78.53
2022-12-19T08:29:20.013Z,73.94
2022-12-19T08:31:50.378Z,73.47
2022-12-19T08:34:18.015Z,73.87
2022-12-19T08:36:45.780Z,73.60
2022-12-19T08:39:13.749Z,72.33
2022-12-19T08:41:41.610Z,72.49
2022-12-19T08:44:11.331Z,72.60
2022-12-19T08:46:40.903Z,72.05
2022-12-19T08:49:10.256Z,71.32
2022-12-19T08:51:38.008Z,70.43
2022-12-19T08:54:07.950Z,71.79
2022-12-19T08:56:41.933Z,70.58
2022-12-19T08:59:26.003Z,71.95
2022-12-19T09:02:02.126Z,71.04
2022-12-19T09:06:01.889Z,71.12
2022-12-19T09:07:18.004Z,70.48
2022-12-19T09:09:45.881Z,69.92
2022-12-19T09:12:14.451Z,69.51
2022-12-19T09:14:44.742Z,70.36
2022-12-19T09:17:12.780Z,69.70
2022-12-19T09:19:41.250Z,71.20
2022-12-19T09:22:16.361Z,70.23
2022-12-19T09:24:43.930Z,70.46
2022-12-19T09:27:11.609Z,70.33
2022-12-19T09:29:40.066Z,70.60
2022-12-19T09:32:07.773Z,69.39
2022-12-19T09:34:38.667Z,69.41
2022-12-19T09:37:07.610Z,69.17
2022-12-19T09:39:35.665Z,73.64
2022-12-19T09:42:41.369Z,74.32
2022-12-19T09:45:31.955Z,73.95
2022-12-19T09:48:01.817Z,73.36
2022-12-19T09:50:50.169Z,73.73
2022-12-19T09:54:05.054Z,73.46
2022-12-19T09:56:45.326Z,73.38
2022-12-19T09:59:19.342Z,72.92
2022-12-19T10:01:57.966Z,73.94
2022-12-19T10:04:33.336Z,73.71
2022-12-19T10:07:20.438Z,74.19
2022-12-19T10:12:35.412Z,72.95
2022-12-19T10:12:58.386Z,68.23
2022-12-19T10:15:38.411Z,67.32
2022-12-19T10:18:17.964Z,65.83
2022-12-19T10:20:52.326Z,66.67
2022-12-19T10:23:26.474Z,65.85
2022-12-19T10:26:00.452Z,65.37
2022-12-19T10:28:50.021Z,66.45
2022-12-19T10:31:35.690Z,64.73
2022-12-19T10:34:22.329Z,64.97
2022-12-19T10:37:23.242Z,64.24
2022-12-19T10:39:55.157Z,65.69
2022-12-19T10:42:32.168Z,65.09
2022-12-19T10:45:03.507Z,66.97
2022-12-19T10:47:32.108Z,64.92
2022-12-19T10:50:04.002Z,65.84
2022-12-19T10:52:50.204Z,64.90
2022-12-19T10:55:32.869Z,65.39
2022-12-19T10:58:30.278Z,65.60
2022-12-19T11:01:03.958Z,64.66
2022-12-19T11:03:33.716Z,65.73
2022-12-19T11:06:02.684Z,64.88
2022-12-19T11:08:32.376Z,64.86
2022-12-19T11:13:32.718Z,65.09
2022-12-19T11:18:44.483Z,65.34
2022-12-19T11:19:08.956Z,65.14
2022-12-19T11:25:40.780Z,65.42
2022-12-19T11:29:32.069Z,65.67
2022-12-19T11:30:26.153Z,65.25
2022-12-19T11:30:34.336Z,65.92
2022-12-19T11:32:31.872Z,64.54
2022-12-19T11:34:25.810Z,64.65
2022-12-19T11:37:11.610Z,62.40
2022-12-19T11:39:48.157Z,62.66
2022-12-19T11:42:23.690Z,62.49
2022-12-19T11:45:03.559Z,62.17
2022-12-19T11:47:37.602Z,63.50
2022-12-19T11:50:23.074Z,63.79
2022-12-19T11:53:35.686Z,64.46
2022-12-19T11:56:16.527Z,63.14
2022-12-19T11:58:48.789Z,63.62
2022-12-19T12:01:47.507Z,63.83
2022-12-19T12:04:33.776Z,61.94
2022-12-19T12:07:03.076Z,61.68
2022-12-19T12:14:27.917Z,60.99
2022-12-19T12:21:24.998Z,61.70
2022-12-19T12:29:53.354Z,59.71
2022-12-19T12:31:13.348Z,62.44
2022-12-19T12:31:15.312Z,60.92
2022-12-19T12:31:43.272Z,62.96
2022-12-19T12:32:04.007Z,62.88
2022-12-19T12:35:40.503Z,63.39
2022-12-19T12:35:56.312Z,63.54
2022-12-19T12:38:24.741Z,63.93
2022-12-19T12:41:06.011Z,63.42
2022-12-19T12:43:58.298Z,62.76
2022-12-19T12:46:31.472Z,63.49
2022-12-19T12:49:03.365Z,63.09
2022-12-19T12:51:33.125Z,62.10
2022-12-19T12:54:06.014Z,61.30
2022-12-19T12:56:35.599Z,60.79
2022-12-19T12:59:18.137Z,62.37
2022-12-19T13:01:50.463Z,60.94
2022-12-19T13:04:19.975Z,61.18
2022-12-19T13:06:50.812Z,59.95
2022-12-19T13:09:27.489Z,62.81
2022-12-19T13:12:02.761Z,62.39
2022-12-19T13:14:36.445Z,62.14
2022-12-19T13:17:08.142Z,63.46
2022-12-19T13:19:40.018Z,62.77
2022-12-19T13:22:07.746Z,64.10
2022-12-19T13:24:42.550Z,64.62
2022-12-19T13:27:19.832Z,63.84
2022-12-19T13:29:59.391Z,63.32
2022-12-19T13:32:32.063Z,64.14
2022-12-19T13:35:49.101Z,63.33
2022-12-19T13:40:01.727Z,64.45
2022-12-19T13:41:28.855Z,70.13
2022-12-19T13:44:00.240Z,69.43
2022-12-19T13:46:41.003Z,68.45
2022-12-19T13:49:17.757Z,68.94
2022-12-19T13:51:52.429Z,70.49
2022-12-19T13:54:32.483Z,71.91
2022-12-19T13:57:03.363Z,72.09
2022-12-19T13:59:38.662Z,72.54
2022-12-19T14:02:27.000Z,71.84
2022-12-19T14:04:55.737Z,72.71
2022-12-19T14:07:39.492Z,73.90
2022-12-19T14:11:36.635Z,74.28
2022-12-19T14:13:57.614Z,74.68
2022-12-19T14:16:17.209Z,75.90
2022-12-19T14:18:49.399Z,75.01
2022-12-19T14:22:05.443Z,75.02
2022-12-19T14:24:16.183Z,75.29
2022-12-19T14:28:23.279Z,76.12
2022-12-19T14:30:26.729Z,76.39
2022-12-19T14:33:47.422Z,77.04
2022-12-19T14:36:12.420Z,76.67
2022-12-19T14:39:24.704Z,77.04
2022-12-19T14:41:19.602Z,78.87
2022-12-19T14:43:59.897Z,79.11
2022-12-19T14:52:08.494Z,78.38
2022-12-19T14:54:03.317Z,77.68
2022-12-19T14:54:37.064Z,77.64
2022-12-19T14:56:19.548Z,77.79
2022-12-19T14:58:55.994Z,77.80
2022-12-19T15:01:28.363Z,76.95
2022-12-19T15:04:47.892Z,78.23
2022-12-19T15:07:08.076Z,78.07
2022-12-19T15:11:04.817Z,78.55
2022-12-19T15:14:47.323Z,78.94
2022-12-19T15:15:51.424Z,79.50
2022-12-19T15:18:32.019Z,80.09
2022-12-19T15:21:04.698Z,80.25
2022-12-19T15:23:32.695Z,80.61
2022-12-19T15:26:04.614Z,81.16
2022-12-19T15:28:51.301Z,81.85
2022-12-19T15:31:34.205Z,81.71
2022-12-19T15:34:44.770Z,81.87
2022-12-19T15:37:11.313Z,80.91
2022-12-19T15:39:39.665Z,81.24
2022-12-19T15:42:19.870Z,82.20
2022-12-19T15:44:48.730Z,82.39
2022-12-19T15:47:32.109Z,82.10
2022-12-19T15:50:01.689Z,82.24
2022-12-19T15:52:29.721Z,81.89
2022-12-19T15:54:57.383Z,82.12
2022-12-19T15:57:34.941Z,82.67
2022-12-19T16:00:06.566Z,81.87
2022-12-19T16:03:13.406Z,82.91
2022-12-19T16:05:26.046Z,83.12
2022-12-19T16:07:57.314Z,83.50
2022-12-19T16:10:25.744Z,82.74
2022-12-19T16:12:55.544Z,82.28
2022-12-19T16:15:27.345Z,82.80
2022-12-19T16:17:56.419Z,83.93
2022-12-19T16:20:30.664Z,83.98
2022-12-19T16:22:58.619Z,83.01
2022-12-19T16:25:41.899Z,83.98
2022-12-19T16:28:25.770Z,83.75
2022-12-19T16:30:55.627Z,83.62
2022-12-19T16:33:28.656Z,83.80
2022-12-19T16:36:06.078Z,83.94
2022-12-19T16:38:34.205Z,83.84
2022-12-19T16:41:02.787Z,84.18
2022-12-19T16:43:38.847Z,84.95
2022-12-19T16:46:16.822Z,84.37
2022-12-19T16:48:44.601Z,84.66
2022-12-19T16:51:21.100Z,84.89
2022-12-19T16:53:52.126Z,85.05
2022-12-19T16:56:35.282Z,85.03
2022-12-19T16:59:06.162Z,84.97
2022-12-19T17:01:34.328Z,84.82
2022-12-19T17:04:02.075Z,84.37
2022-12-19T17:06:29.779Z,84.61
2022-12-19T17:08:57.726Z,84.18
2022-12-19T17:11:28.124Z,83.53
2022-12-19T17:14:08.189Z,84.33
2022-12-19T17:16:36.581Z,83.95
2022-12-19T17:19:04.445Z,84.70
2022-12-19T17:21:32.072Z,84.56
2022-12-19T17:24:00.090Z,84.21
2022-12-19T17:26:27.715Z,84.52
2022-12-19T17:28:55.398Z,84.90
2022-12-19T17:31:26.421Z,84.59
2022-12-19T17:33:55.526Z,84.93
2022-12-19T17:36:29.868Z,84.22
2022-12-19T17:39:01.430Z,84.44
2022-12-19T17:41:29.357Z,84.51
2022-12-19T17:43:56.992Z,84.86
2022-12-19T17:46:30.650Z,84.60
2022-12-19T17:48:58.623Z,85.27
2022-12-19T17:51:26.374Z,85.43
2022-12-19T17:53:54.004Z,84.68
2022-12-19T17:56:22.055Z,84.44
2022-12-19T17:58:49.968Z,84.42
2022-12-19T18:01:23.132Z,84.65
2022-12-19T18:03:52.775Z,84.59
2022-12-19T18:06:20.746Z,84.40
2022-12-19T18:08:48.415Z,84.60
2022-12-19T18:11:19.317Z,85.12
2022-12-19T18:13:47.330Z,84.30
2022-12-19T18:16:18.458Z,84.44
2022-12-19T18:18:47.712Z,84.33
2022-12-19T18:21:17.885Z,83.61
2022-12-19T18:23:46.525Z,83.67
2022-12-19T18:26:14.450Z,83.60
2022-12-19T18:28:43.178Z,84.47
2022-12-19T18:31:31.670Z,84.42
2022-12-19T18:34:05.346Z,84.71
2022-12-19T18:36:40.255Z,84.67
2022-12-19T18:39:20.725Z,85.18
2022-12-19T18:41:49.472Z,84.55
2022-12-19T18:44:17.681Z,84.75
2022-12-19T18:46:45.930Z,84.84
2022-12-19T18:49:16.781Z,84.67
2022-12-19T18:51:44.928Z,84.47
2022-12-19T18:54:14.333Z,84.71
2022-12-19T18:56:42.922Z,84.87
2022-12-19T18:59:10.718Z,84.42
2022-12-19T19:01:42.514Z,84.91
2022-12-19T19:04:11.312Z,84.67
2022-12-19T19:06:42.093Z,85.96
2022-12-19T19:09:18.769Z,85.37
2022-12-19T19:11:48.149Z,85.37
2022-12-19T19:14:16.058Z,84.96
2022-12-19T19:16:44.853Z,85.45
2022-12-19T19:19:15.037Z,85.30
2022-12-19T19:21:43.801Z,80.75
2022-12-19T19:24:17.858Z,84.34
2022-12-19T19:26:48.215Z,85.25
2022-12-19T19:29:17.180Z,85.21
2022-12-19T19:31:47.373Z,84.93
2022-12-19T19:34:28.249Z,85.42
2022-12-19T19:36:58.159Z,85.85
2022-12-19T19:39:26.574Z,85.93
2022-12-19T19:41:54.507Z,86.56
2022-12-19T19:44:22.354Z,86.32
2022-12-19T19:46:50.109Z,86.92
2022-12-19T19:49:17.903Z,86.46
2022-12-19T19:51:46.242Z,85.44
2022-12-19T19:54:14.000Z,86.26
2022-12-19T19:56:42.030Z,86.58
2022-12-19T19:59:10.106Z,86.92
2022-12-19T20:01:38.066Z,87.42
2022-12-19T20:04:06.314Z,85.90
2022-12-19T20:06:34.025Z,86.82
2022-12-19T20:09:02.160Z,86.31
2022-12-19T20:11:30.487Z,84.82
2022-12-19T20:13:58.139Z,84.86
2022-12-19T20:16:28.972Z,85.24
2022-12-19T20:18:57.082Z,84.94
2022-12-19T20:21:24.865Z,84.43
2022-12-19T20:23:52.597Z,85.46
2022-12-19T20:26:20.768Z,86.42
2022-12-19T20:28:50.377Z,86.96
2022-12-19T20:31:22.412Z,86.70
2022-12-19T20:33:51.056Z,87.07
2022-12-19T20:36:19.224Z,87.45
2022-12-19T20:38:47.217Z,87.18
2022-12-19T20:41:16.125Z,86.87
2022-12-19T20:43:44.173Z,86.67
2022-12-19T20:46:17.663Z,85.80
2022-12-19T20:48:48.474Z,84.99
2022-12-19T20:51:17.110Z,84.78
2022-12-19T20:53:45.703Z,84.97
2022-12-19T20:56:16.480Z,85.07
2022-12-19T20:58:44.815Z,85.14
2022-12-19T21:01:19.269Z,86.23
2022-12-19T21:03:48.721Z,84.89
2022-12-19T21:06:18.813Z,85.77
2022-12-19T21:08:47.030Z,85.39
2022-12-19T21:11:15.321Z,85.06
2022-12-19T21:13:44.114Z,86.81
2022-12-19T21:16:14.649Z,87.15
2022-12-19T21:18:43.984Z,86.55
2022-12-19T21:21:19.060Z,87.78
2022-12-19T21:23:47.070Z,87.51
2022-12-19T21:26:15.081Z,87.53
2022-12-19T21:28:43.565Z,88.15
2022-12-19T21:31:28.856Z,87.23
2022-12-19T21:33:58.491Z,86.05
2022-12-19T21:36:26.916Z,86.79
2022-12-19T21:38:56.951Z,87.49
2022-12-19T21:41:25.052Z,87.83
2022-12-19T21:43:54.478Z,88.20
2022-12-19T21:46:24.755Z,87.56
2022-12-19T21:48:54.967Z,87.76
2022-12-19T21:51:25.585Z,87.77
2022-12-19T21:53:58.078Z,86.64
2022-12-19T21:56:26.757Z,87.01
2022-12-19T21:58:57.311Z,87.23
2022-12-19T22:01:25.615Z,87.60
2022-12-19T22:03:58.280Z,87.44
2022-12-19T22:06:29.240Z,86.70
2022-12-19T22:08:57.930Z,87.78
2022-12-19T22:11:26.406Z,87.74
2022-12-19T22:13:54.249Z,86.66
2022-12-19T22:16:22.222Z,86.43
2022-12-19T22:18:50.130Z,87.58
2022-12-19T22:21:18.232Z,87.25
2022-12-19T22:23:46.271Z,85.41
2022-12-19T22:26:14.915Z,84.87
2022-12-19T22:28:44.912Z,85.60
2022-12-19T22:31:18.943Z,86.97
2022-12-19T22:33:47.455Z,87.95
2022-12-19T22:36:19.687Z,88.29
2022-12-19T22:38:50.787Z,87.94
2022-12-19T22:41:24.508Z,87.63
2022-12-19T22:43:52.915Z,87.33
2022-12-19T22:46:26.761Z,87.09
2022-12-19T22:49:08.456Z,87.54
2022-12-19T22:51:36.894Z,87.78
2022-12-19T22:54:05.438Z,87.07
2022-12-19T22:56:33.918Z,87.18
2022-12-19T22:59:04.147Z,83.77
2022-12-19T23:01:38.427Z,86.77
2022-12-19T23:04:08.106Z,87.01
2022-12-19T23:06:39.074Z,87.28
2022-12-19T23:09:08.392Z,86.98
2022-12-19T23:11:37.878Z,87.65
2022-12-19T23:14:07.468Z,87.53
2022-12-19T23:16:35.777Z,87.47
2022-12-19T23:19:04.988Z,86.31
2022-12-19T23:21:32.852Z,86.27
2022-12-19T23:24:00.965Z,86.22
2022-12-19T23:26:31.117Z,86.91
2022-12-19T23:29:01.430Z,86.00
2022-12-19T23:31:29.616Z,87.33
2022-12-19T23:33:58.455Z,87.27
2022-12-19T23:39:14.697Z,87.72
2022-12-19T23:41:44.246Z,87.68
2022-12-19T23:44:12.119Z,87.63
2022-12-19T23:46:40.324Z,87.27
2022-12-19T23:49:07.991Z,87.46
2022-12-19T23:51:35.585Z,87.06
2022-12-19T23:54:03.543Z,86.97
2022-12-19T23:56:32.195Z,86.82
2022-12-19T23:59:00.451Z,83.95
